Medway, ME

7:24 PM EDT on April 21, 2015 (GMT -0400)
Millinocket Municipal | | Change Station
CLOSE
Current Station
Airport
Location: Millinocket,
Elevation: 407 ft
Nearby Weather Stations
Active Advisory: Flood Warning Active Notice: Record Report

Elev 407 ft 45.65 °N, 68.69 °W | Updated 8 minutes ago

Overcast
Overcast
47 °F
Feels Like 47 °F
N
0
Wind Variable Wind from North

Today
High -- | Low -- °F
--% Chance of Precip.
Yesterday
High -- | Low -- °F
Precip. -- in
5:38 AM 7:27 PM
Waxing Crescent, 13% visible
Pressure 29.63 in
Visibility 1.0 miles
Clouds Overcast 500 ft
Dew Point 45 °F
Humidity 93%
Rainfall 0.85 in
Snow Depth Not available.
UV 0 out of 12
Pollen 1.00 out of 12
Air Quality Not available.
Flu Activity Regional
SPECI KMLT 212316Z AUTO 00000KT 1SM BR OVC005 08/07 A2963 RMK AO2 T00830072

More Conditions Fewer Conditions

Pressure 29.63 in
Visibility 1.0 miles
Clouds Overcast 500 ft
Dew Point 45 °F
Humidity 93%
Rainfall 0.85 in
Snow Depth Not available.
UV 0 out of 12
Pollen 1.00 out of 12
Air Quality Not available.
Flu Activity Regional
SPECI KMLT 212316Z AUTO 00000KT 1SM BR OVC005 08/07 A2963 RMK AO2 T00830072

More Conditions Fewer Conditions

10-Day Weather Forecast

Almanac

Astronomy

Apr. 21, 2015 Rise Set
Actual Time
Civil Twilight
Nautical Twilight
Astronomical Twilight
Moon
Length of Visible Light
Length of Day
Tomorrow will be .
, % of the Moon is Illuminated

Today's Extremes

State Highs State Lows

Community

WunderPhotos

Upload Photos

1,815,579 photos uploaded!

WunderBlogs® & News

Nearby

Air Quality

  Air Quality AQ Index Pollutant
Not available.

Snow Depth

Station Depth Elevation

Earthquake Activity

City Distance Mag. Time & Date
Minimum magnitude displayed is 2.5.

Coastal Water Temperatures

Place Temperature

Stations

Nearby Weather Stations

Station Location Temp. Windchill Dew Point Humidity Wind Precip. Elev Updated Type
                   
Flood Warning
Statement as of 4:43 PM EDT on April 21, 2015

The Flood Warning continues for
the Mattawamkeag River above Mattawamkeag
* until further notice... or until the warning is cancelled.
* At 16:30 PM Tuesday the stage was 13.6 feet
* minor flooding is occurring and minor flooding is forecast.
* Flood stage is 13.5 feet.
* Forecast... the river will continue rising to near 13.9 feet by
Thursday early afternoon. Additional rises may be possible
thereafter.
* Impacts... at 13.5 feet, minor lowland flooding occurs. Flooding begins to
affect the Bancroft Road between Wytopitlock and Danforth.



Lat... Lon 4557 6838 4560 6819 4572 6808 4566 6794
      4551 6810 4546 6835